createdAt,value
2023-02-05T00:00:30.443Z,4.03
2023-02-05T00:07:32.008Z,4.13
2023-02-05T00:14:33.618Z,4.09
2023-02-05T00:21:35.176Z,4.01
2023-02-05T00:28:36.766Z,4.03
2023-02-05T00:35:38.375Z,4.00
2023-02-05T00:42:39.917Z,3.89
2023-02-05T00:49:41.424Z,3.97
2023-02-05T00:56:42.952Z,3.91
2023-02-05T01:03:44.602Z,3.87
2023-02-05T01:10:48.391Z,3.86
2023-02-05T01:17:49.926Z,3.67
2023-02-05T01:24:51.542Z,3.58
2023-02-05T01:31:53.307Z,3.66
2023-02-05T01:38:54.885Z,3.58
2023-02-05T01:46:07.458Z,3.67
2023-02-05T01:53:11.565Z,3.57
2023-02-05T02:00:13.396Z,3.59
2023-02-05T02:07:20.635Z,3.47
2023-02-05T02:14:22.274Z,3.52
2023-02-05T02:21:56.482Z,3.56
2023-02-05T02:29:02.369Z,3.49
2023-02-05T02:36:11.260Z,3.47
2023-02-05T02:43:58.873Z,3.24
2023-02-05T02:51:01.205Z,3.20
2023-02-05T02:58:03.564Z,3.32
2023-02-05T03:05:09.801Z,3.13
2023-02-05T03:12:12.113Z,3.10
2023-02-05T03:19:14.097Z,3.21
2023-02-05T03:26:29.148Z,3.32
2023-02-05T03:34:21.298Z,3.56
2023-02-05T03:41:57.363Z,3.46
2023-02-05T03:49:27.480Z,3.52
2023-02-05T03:56:34.278Z,3.42
2023-02-05T04:03:37.662Z,3.53
2023-02-05T04:10:39.868Z,3.65
2023-02-05T04:17:41.533Z,3.68
2023-02-05T04:24:44.168Z,3.72
2023-02-05T04:31:45.894Z,3.55
2023-02-05T04:38:48.205Z,3.57
2023-02-05T04:45:50.049Z,3.64
2023-02-05T04:52:51.760Z,3.59
2023-02-05T04:59:53.271Z,3.47
2023-02-05T05:06:54.909Z,3.61
2023-02-05T05:13:56.469Z,3.58
2023-02-05T05:20:58.205Z,3.59
2023-02-05T05:27:59.840Z,3.76
2023-02-05T05:35:01.414Z,3.54
2023-02-05T05:42:22.103Z,3.50
2023-02-05T05:49:23.611Z,3.54
2023-02-05T05:56:25.121Z,3.58
2023-02-05T06:03:26.689Z,3.54
2023-02-05T06:10:28.346Z,3.63
2023-02-05T06:17:29.880Z,3.69
2023-02-05T06:24:31.573Z,3.39
2023-02-05T06:31:33.249Z,3.53
2023-02-05T06:38:34.840Z,3.69
2023-02-05T06:45:36.858Z,3.69
2023-02-05T06:52:38.552Z,3.69
2023-02-05T06:59:40.065Z,3.61
2023-02-05T07:06:41.579Z,3.83
2023-02-05T07:13:43.125Z,3.86
2023-02-05T07:20:44.721Z,3.99
2023-02-05T07:27:46.346Z,3.92
2023-02-05T07:34:47.898Z,3.69
2023-02-05T07:41:53.460Z,3.88
2023-02-05T07:49:02.694Z,3.91
2023-02-05T07:56:04.488Z,3.78
2023-02-05T08:03:06.047Z,3.88
2023-02-05T08:10:07.677Z,3.80
2023-02-05T08:17:09.349Z,3.75
2023-02-05T08:24:10.907Z,3.84
2023-02-05T08:31:16.791Z,3.98
2023-02-05T08:38:18.373Z,3.96
2023-02-05T08:45:19.939Z,4.01
2023-02-05T08:52:21.494Z,3.98
2023-02-05T08:59:23.190Z,4.06
2023-02-05T09:06:24.944Z,3.88
2023-02-05T09:13:26.615Z,4.10
2023-02-05T09:20:28.235Z,4.29
2023-02-05T09:27:30.458Z,3.96
2023-02-05T09:34:32.544Z,3.87
2023-02-05T09:41:50.170Z,4.16
2023-02-05T09:49:00.708Z,4.33
2023-02-05T09:56:02.551Z,4.74
2023-02-05T10:03:07.058Z,4.59
2023-02-05T10:10:27.506Z,4.81
2023-02-05T10:18:03.259Z,4.95
2023-02-05T10:25:28.005Z,4.94
2023-02-05T10:32:34.132Z,4.96
2023-02-05T10:39:35.654Z,4.64
2023-02-05T10:46:37.737Z,4.99
2023-02-05T10:53:39.667Z,5.07
2023-02-05T11:00:41.287Z,5.34
2023-02-05T11:07:47.598Z,5.28
2023-02-05T11:14:56.152Z,5.32
2023-02-05T11:21:59.765Z,5.41
2023-02-05T11:29:12.341Z,5.52
2023-02-05T11:36:18.171Z,5.59
2023-02-05T11:43:26.893Z,5.51
2023-02-05T11:50:29.085Z,5.33
2023-02-05T11:57:35.488Z,5.78
2023-02-05T12:04:44.475Z,5.71
2023-02-05T12:12:18.337Z,6.05
2023-02-05T12:19:26.543Z,6.29
2023-02-05T12:26:35.837Z,6.44
2023-02-05T12:33:54.048Z,6.20
2023-02-05T12:41:05.440Z,6.16
2023-02-05T12:48:13.214Z,6.02
2023-02-05T12:55:23.091Z,5.84
2023-02-05T13:02:44.956Z,6.06
2023-02-05T13:09:51.275Z,5.98
2023-02-05T13:17:04.961Z,6.03
2023-02-05T13:24:47.613Z,6.17
2023-02-05T13:31:50.687Z,6.21
2023-02-05T13:39:01.360Z,6.09
2023-02-05T13:46:06.986Z,6.30
2023-02-05T13:53:14.326Z,6.19
2023-02-05T14:00:16.081Z,6.07
2023-02-05T14:07:35.451Z,5.92
2023-02-05T14:14:38.081Z,5.93
2023-02-05T14:21:45.889Z,5.83
2023-02-05T14:28:49.155Z,5.72
2023-02-05T14:35:51.413Z,5.88
2023-02-05T14:43:08.449Z,5.80
2023-02-05T14:50:17.587Z,5.54
2023-02-05T14:57:23.786Z,5.68
2023-02-05T15:04:29.132Z,5.67
2023-02-05T15:11:34.690Z,5.66
2023-02-05T15:18:45.791Z,5.68
2023-02-05T15:25:52.817Z,5.53
2023-02-05T15:32:59.061Z,5.66
2023-02-05T15:40:06.472Z,5.52
2023-02-05T15:47:14.450Z,5.41
2023-02-05T15:54:19.210Z,5.45
2023-02-05T16:01:23.458Z,5.28
2023-02-05T16:08:28.035Z,5.28
2023-02-05T16:15:33.699Z,5.23
2023-02-05T16:22:38.068Z,5.11
2023-02-05T16:29:47.885Z,5.04
2023-02-05T16:36:50.318Z,5.01
2023-02-05T16:43:53.177Z,4.93
2023-02-05T16:50:59.300Z,4.83
2023-02-05T16:58:04.793Z,4.88
2023-02-05T17:05:22.919Z,4.81
2023-02-05T17:12:33.614Z,4.73
2023-02-05T17:19:35.174Z,4.75
2023-02-05T17:26:38.830Z,4.61
2023-02-05T17:33:40.361Z,4.48
2023-02-05T17:40:42.157Z,4.64
2023-02-05T17:47:44.561Z,4.58
2023-02-05T17:54:46.415Z,4.57
2023-02-05T18:01:48.584Z,4.54
2023-02-05T18:08:50.116Z,4.55
2023-02-05T18:15:52.373Z,4.43
2023-02-05T18:22:53.946Z,4.47
2023-02-05T18:29:55.552Z,4.46
2023-02-05T18:36:57.124Z,4.41
2023-02-05T18:43:58.862Z,4.41
2023-02-05T18:51:04.844Z,4.37
2023-02-05T18:58:06.445Z,4.36
2023-02-05T19:05:08.734Z,4.32
2023-02-05T19:12:10.315Z,4.29
2023-02-05T19:19:16.494Z,4.39
2023-02-05T19:26:19.530Z,4.28
2023-02-05T19:33:21.114Z,4.46
2023-02-05T19:40:22.743Z,4.26
2023-02-05T19:47:24.327Z,4.23
2023-02-05T19:54:25.928Z,4.27
2023-02-05T20:01:29.054Z,4.19
2023-02-05T20:08:30.622Z,4.32
2023-02-05T20:15:32.553Z,4.37
2023-02-05T20:22:34.124Z,4.30
2023-02-05T20:29:54.438Z,4.19
2023-02-05T20:37:00.572Z,4.08
2023-02-05T20:44:03.055Z,4.06
2023-02-05T20:51:11.989Z,3.97
2023-02-05T20:58:13.645Z,4.22
2023-02-05T21:05:15.272Z,3.99
2023-02-05T21:12:16.820Z,4.07
2023-02-05T21:19:18.368Z,3.88
2023-02-05T21:26:23.433Z,3.87
2023-02-05T21:33:26.355Z,3.92
2023-02-05T21:40:27.885Z,3.88
2023-02-05T21:47:29.431Z,3.97
2023-02-05T21:54:31.151Z,3.90
2023-02-05T22:01:33.890Z,3.97
2023-02-05T22:08:35.962Z,3.79
2023-02-05T22:15:37.783Z,3.82
2023-02-05T22:22:39.373Z,3.74
2023-02-05T22:29:40.885Z,3.72
2023-02-05T22:36:42.446Z,3.78
2023-02-05T22:43:43.988Z,3.84
2023-02-05T22:50:45.936Z,3.79
2023-02-05T22:57:47.525Z,3.68
2023-02-05T23:04:49.111Z,3.64
2023-02-05T23:11:50.664Z,3.68
2023-02-05T23:18:56.072Z,3.67
2023-02-05T23:25:57.592Z,3.59
2023-02-05T23:32:59.195Z,3.40
2023-02-05T23:40:00.814Z,3.34
2023-02-05T23:47:02.578Z,3.21
2023-02-05T23:54:04.705Z,3.19
